Time;durP1;ratioP1;P1;durP2;ratioP2;P2;SDS_P1;SDS_P2;PMS_P1;PMS_P2;Temp;Humidity;BMP_temperature;BMP_pressure;BME280_temperature;BME280_humidity;BME280_pressure;Samples;Min_cycle;Max_cycle;Signal;HPM_P1;HPM_P2
2023/02/09 00:02:19;;;;;;;44.83;30.30;;;-0.40;99.90;;;;;;5021252;28;20922;-76
2023/02/09 00:04:50;;;;;;;42.03;30.03;;;-0.40;99.90;;;;;;5012012;28;20459;-77
2023/02/09 00:07:30;;;;;;;45.10;30.17;;;-0.50;99.90;;;;;;5023426;28;20997;-77
2023/02/09 00:10:07;;;;;;;43.10;29.63;;;-0.50;99.90;;;;;;5018590;28;20558;-77
2023/02/09 00:15:25;;;;;;;43.87;29.80;;;-0.50;99.90;;;;;;5012019;28;20475;-77
2023/02/09 00:17:56;;;;;;;41.20;30.60;;;-0.50;99.90;;;;;;5009192;28;20491;-77
2023/02/09 00:20:34;;;;;;;43.83;30.37;;;-0.50;99.90;;;;;;5014423;28;20510;-77
2023/02/09 00:23:05;;;;;;;40.57;29.27;;;-0.50;99.90;;;;;;5019690;28;20494;-77
2023/02/09 00:25:43;;;;;;;45.30;29.50;;;-0.50;99.90;;;;;;5016157;28;20475;-77
2023/02/09 00:28:17;;;;;;;40.53;29.90;;;-0.60;99.90;;;;;;5019802;28;20903;-77
2023/02/09 00:30:50;;;;;;;42.60;28.67;;;-0.60;99.90;;;;;;5015393;28;20489;-77
2023/02/09 00:33:21;;;;;;;43.90;29.90;;;-0.60;99.90;;;;;;5013501;28;20557;-77
2023/02/09 00:36:05;;;;;;;40.93;28.93;;;-0.60;99.90;;;;;;5007502;28;21005;-77
2023/02/09 00:38:37;;;;;;;52.40;31.43;;;-0.60;99.90;;;;;;5020065;28;20494;-77
2023/02/09 00:41:12;;;;;;;45.40;31.70;;;-0.60;99.90;;;;;;5017979;28;20471;-77
2023/02/09 00:43:47;;;;;;;43.40;30.50;;;-0.60;99.90;;;;;;5017574;28;20483;-77
2023/02/09 00:46:31;;;;;;;42.80;29.80;;;-0.60;99.90;;;;;;5017993;28;20473;-77
2023/02/09 00:49:06;;;;;;;44.43;29.93;;;-0.70;99.90;;;;;;5020751;28;20497;-77
2023/02/09 00:51:34;;;;;;;44.67;30.97;;;-0.70;99.90;;;;;;5029213;28;20487;-77
2023/02/09 00:54:08;;;;;;;45.43;29.40;;;-0.70;99.90;;;;;;5019540;28;20485;-77
2023/02/09 00:56:44;;;;;;;44.47;29.83;;;-0.70;99.90;;;;;;5020593;28;20471;-77
2023/02/09 00:59:12;;;;;;;44.30;30.10;;;-0.70;99.90;;;;;;5009221;28;20506;-77
2023/02/09 01:01:43;;;;;;;44.43;31.07;;;-0.70;99.90;;;;;;5016224;28;20487;-77
2023/02/09 01:04:19;;;;;;;41.20;29.27;;;-0.70;99.90;;;;;;5017704;28;20783;-77
2023/02/09 01:06:52;;;;;;;39.63;29.50;;;-0.70;99.90;;;;;;5016008;28;20475;-77
2023/02/09 01:09:28;;;;;;;43.73;30.70;;;-0.80;99.90;;;;;;5020828;28;20841;-77
2023/02/09 01:12:01;;;;;;;42.80;32.30;;;-0.80;99.90;;;;;;5014711;28;20477;-77
2023/02/09 01:14:37;;;;;;;44.63;30.57;;;-0.80;99.90;;;;;;5012457;28;20486;-77
2023/02/09 01:17:08;;;;;;;44.47;30.77;;;-0.80;99.90;;;;;;5016829;28;20479;-77
2023/02/09 01:19:37;;;;;;;45.30;30.77;;;-0.80;99.90;;;;;;5007042;28;20541;-77
2023/02/09 01:22:08;;;;;;;43.47;30.07;;;-0.80;99.90;;;;;;5013227;28;20471;-77
2023/02/09 01:24:42;;;;;;;43.53;29.77;;;-0.80;99.90;;;;;;5016382;28;20959;-77
2023/02/09 01:27:13;;;;;;;41.40;29.47;;;-0.80;99.90;;;;;;5027102;28;20471;-77
2023/02/09 01:29:46;;;;;;;45.07;29.27;;;-0.80;99.90;;;;;;5018849;28;20483;-77
2023/02/09 01:32:18;;;;;;;40.20;28.30;;;-0.90;99.90;;;;;;5023804;28;20969;-77
2023/02/09 01:34:52;;;;;;;39.90;29.30;;;-0.90;99.90;;;;;;5013773;28;20476;-77
2023/02/09 01:37:33;;;;;;;44.33;31.07;;;-0.90;99.90;;;;;;5023139;28;20470;-77
2023/02/09 01:40:07;;;;;;;42.87;29.70;;;-0.80;99.90;;;;;;5019482;28;20530;-77
2023/02/09 01:42:36;;;;;;;41.80;29.60;;;-0.90;99.90;;;;;;5019715;28;20467;-77
2023/02/09 01:45:20;;;;;;;41.33;30.23;;;-0.90;99.90;;;;;;5023711;28;20971;-77
2023/02/09 01:48:00;;;;;;;43.33;30.20;;;-0.90;99.90;;;;;;5020835;28;20485;-77
2023/02/09 01:50:38;;;;;;;46.23;30.00;;;-0.90;99.90;;;;;;5026279;28;20847;-77
2023/02/09 01:53:15;;;;;;;42.00;30.60;;;-0.90;99.90;;;;;;5027014;28;21466;-77
2023/02/09 01:55:50;;;;;;;47.37;30.77;;;-0.90;99.90;;;;;;5023497;28;20851;-77
2023/02/09 01:58:32;;;;;;;42.67;29.20;;;-0.90;99.90;;;;;;5022639;28;20487;-77
2023/02/09 02:01:04;;;;;;;44.03;29.37;;;-0.90;99.90;;;;;;5026440;28;20483;-77
2023/02/09 02:03:44;;;;;;;45.60;29.70;;;-0.90;99.90;;;;;;5031195;28;20463;-77
2023/02/09 02:06:15;;;;;;;44.40;30.70;;;-0.90;99.90;;;;;;5017797;28;20918;-77
2023/02/09 02:08:49;;;;;;;41.30;29.63;;;-0.90;99.90;;;;;;5028288;28;20514;-77
2023/02/09 02:11:22;;;;;;;41.80;29.80;;;-0.90;99.90;;;;;;5020569;28;20466;-77
2023/02/09 02:13:51;;;;;;;42.37;30.47;;;-0.90;99.90;;;;;;5029827;28;20467;-77
2023/02/09 02:16:35;;;;;;;39.77;29.90;;;-0.90;99.90;;;;;;5021111;28;20477;-77
2023/02/09 02:19:32;;;;;;;42.13;29.70;;;-0.90;99.90;;;;;;5018337;28;20917;-77
2023/02/09 02:22:29;;;;;;;42.10;29.03;;;-0.90;99.90;;;;;;4990178;28;20487;-77
2023/02/09 02:25:40;;;;;;;43.17;28.87;;;-0.90;99.90;;;;;;5017970;28;21037;-77
2023/02/09 02:28:31;;;;;;;39.30;28.63;;;-1.00;99.90;;;;;;5018516;28;20532;-77
2023/02/09 02:31:32;;;;;;;42.30;30.30;;;-1.00;99.90;;;;;;5013583;28;21751;-77
2023/02/09 02:34:17;;;;;;;40.50;27.87;;;-1.00;99.90;;;;;;5019140;28;20482;-77
2023/02/09 02:36:57;;;;;;;40.67;29.27;;;-1.00;99.90;;;;;;5020540;28;20470;-77
2023/02/09 02:39:34;;;;;;;44.63;30.17;;;-1.00;99.90;;;;;;5018127;28;20487;-77
2023/02/09 02:45:18;;;;;;;39.13;28.07;;;-1.00;99.90;;;;;;5020357;28;20487;-76
2023/02/09 02:47:58;;;;;;;37.90;26.27;;;-1.00;99.90;;;;;;5018127;28;20592;-77
2023/02/09 02:50:34;;;;;;;45.00;29.40;;;-1.00;99.90;;;;;;5029935;28;20488;-77
2023/02/09 02:53:21;;;;;;;39.87;28.00;;;-1.00;99.90;;;;;;5015270;28;20484;-77
2023/02/09 02:55:53;;;;;;;43.83;28.43;;;-1.00;99.90;;;;;;5023869;28;20467;-77
2023/02/09 02:58:25;;;;;;;41.03;27.10;;;-1.00;99.90;;;;;;5022728;28;20491;-77
2023/02/09 03:01:01;;;;;;;38.53;28.43;;;-1.00;99.90;;;;;;5021937;28;20521;-76
2023/02/09 03:03:35;;;;;;;40.57;28.67;;;-1.00;99.90;;;;;;5019751;28;20467;-77
2023/02/09 03:06:10;;;;;;;38.37;28.57;;;-1.00;99.90;;;;;;5024765;28;20498;-77
2023/02/09 03:08:52;;;;;;;38.87;26.23;;;-1.00;99.90;;;;;;5022667;28;20482;-77
2023/02/09 03:11:28;;;;;;;42.07;28.10;;;-1.00;99.90;;;;;;5010819;28;20482;-77
2023/02/09 03:14:12;;;;;;;38.90;27.00;;;-1.00;99.90;;;;;;5024812;28;20504;-77
2023/02/09 03:16:53;;;;;;;36.53;26.67;;;-1.00;99.90;;;;;;5026411;28;20477;-77
2023/02/09 03:19:34;;;;;;;38.87;25.83;;;-1.00;99.90;;;;;;5023257;28;21108;-77
2023/02/09 03:22:11;;;;;;;39.20;27.60;;;-1.00;99.90;;;;;;5017938;28;20467;-77
2023/02/09 03:24:58;;;;;;;39.27;26.83;;;-1.00;99.90;;;;;;5026113;28;20498;-77
2023/02/09 03:27:34;;;;;;;39.47;26.57;;;-1.00;99.90;;;;;;5021324;28;20474;-76
2023/02/09 03:30:15;;;;;;;41.00;26.37;;;-1.00;99.90;;;;;;5026004;28;20863;-77
2023/02/09 03:32:47;;;;;;;41.20;27.63;;;-1.00;99.90;;;;;;5026032;28;20479;-77
2023/02/09 03:35:27;;;;;;;38.57;25.97;;;-1.00;99.90;;;;;;5026759;28;20478;-76
2023/02/09 03:38:06;;;;;;;43.70;26.00;;;-1.00;99.90;;;;;;5033355;28;20496;-77
2023/02/09 03:40:39;;;;;;;40.20;26.67;;;-1.00;99.90;;;;;;5027912;28;20492;-77
2023/02/09 03:43:12;;;;;;;37.20;26.30;;;-1.00;99.90;;;;;;5019703;28;20478;-77
2023/02/09 03:45:50;;;;;;;37.07;25.27;;;-1.00;99.90;;;;;;5030232;28;20467;-77
2023/02/09 03:48:29;;;;;;;42.80;27.60;;;-1.00;99.90;;;;;;5030684;28;20556;-76
2023/02/09 03:51:01;;;;;;;36.20;26.87;;;-1.00;99.90;;;;;;5033214;28;20978;-77
2023/02/09 03:53:32;;;;;;;38.33;26.87;;;-1.10;99.90;;;;;;5026539;28;20475;-77
2023/02/09 03:56:06;;;;;;;38.57;27.53;;;-1.10;99.90;;;;;;5037179;28;20971;-77
2023/02/09 03:58:41;;;;;;;38.10;25.23;;;-1.10;99.90;;;;;;5029175;28;21116;-77
2023/02/09 04:01:13;;;;;;;36.70;26.00;;;-1.10;99.90;;;;;;5025972;28;20498;-77
2023/02/09 04:03:42;;;;;;;40.57;27.57;;;-1.10;99.90;;;;;;5018339;28;20487;-77
2023/02/09 04:06:12;;;;;;;42.43;27.07;;;-1.20;99.90;;;;;;5022961;28;20987;-77
2023/02/09 04:08:48;;;;;;;40.10;27.43;;;-1.20;99.90;;;;;;5018499;28;20574;-77
2023/02/09 04:11:24;;;;;;;42.00;25.90;;;-1.20;99.90;;;;;;5021435;28;20470;-77
2023/02/09 04:13:59;;;;;;;35.03;25.43;;;-1.20;99.90;;;;;;5021081;28;20483;-77
2023/02/09 04:16:29;;;;;;;36.90;24.93;;;-1.20;99.90;;;;;;5026410;28;20466;-76
2023/02/09 04:18:59;;;;;;;39.13;25.43;;;-1.20;99.90;;;;;;5025768;28;20476;-76
2023/02/09 04:21:32;;;;;;;37.03;25.67;;;-1.20;99.90;;;;;;5023779;28;21014;-75
2023/02/09 04:24:05;;;;;;;38.07;26.17;;;-1.20;99.90;;;;;;5018698;28;20485;-77
2023/02/09 04:26:37;;;;;;;41.53;28.00;;;-1.30;99.90;;;;;;5015716;28;20494;-77
2023/02/09 04:29:10;;;;;;;35.33;25.77;;;-1.30;99.90;;;;;;5021728;28;20496;-77
2023/02/09 04:31:46;;;;;;;37.50;25.10;;;-1.30;99.90;;;;;;5021069;28;20527;-77
2023/02/09 04:34:25;;;;;;;35.50;24.90;;;-1.30;99.90;;;;;;5014047;28;20480;-77
2023/02/09 04:36:56;;;;;;;36.73;24.30;;;-1.30;99.90;;;;;;5023770;28;20471;-77
2023/02/09 04:39:24;;;;;;;34.40;23.93;;;-1.30;99.90;;;;;;5017745;28;20505;-77
2023/02/09 04:41:58;;;;;;;33.93;25.17;;;-1.20;99.90;;;;;;5019806;28;20475;-80
2023/02/09 05:30:44;;;;;;;32.03;21.53;;;-1.10;99.90;;;;;;1497599;26;20531;-74
2023/02/09 05:33:13;;;;;;;33.40;21.30;;;-1.10;99.90;;;;;;5085194;28;20488;-74
2023/02/09 05:35:41;;;;;;;28.13;20.57;;;-1.00;99.90;;;;;;5091189;28;20483;-75
2023/02/09 05:38:09;;;;;;;32.70;22.00;;;-1.00;99.90;;;;;;5087550;28;20479;-75
2023/02/09 05:40:36;;;;;;;31.67;19.93;;;-1.00;99.90;;;;;;5086681;28;21074;-75
2023/02/09 05:43:04;;;;;;;27.50;20.57;;;-1.00;99.90;;;;;;5085919;28;20477;-73
2023/02/09 05:45:32;;;;;;;29.30;20.93;;;-1.00;99.90;;;;;;5090283;28;20846;-75
2023/02/09 05:48:02;;;;;;;30.50;20.07;;;-1.00;99.90;;;;;;5075731;28;20537;-73
2023/02/09 05:50:30;;;;;;;31.73;21.20;;;-1.00;99.90;;;;;;5075435;28;20468;-75
2023/02/09 05:52:59;;;;;;;27.90;19.70;;;-1.10;99.90;;;;;;5086648;28;20457;-75
2023/02/09 05:55:27;;;;;;;32.03;21.37;;;-1.10;99.90;;;;;;5090589;28;20848;-73
2023/02/09 05:57:55;;;;;;;32.27;21.43;;;-1.10;99.90;;;;;;5086767;28;20863;-73
2023/02/09 06:00:25;;;;;;;29.13;20.67;;;-1.20;99.90;;;;;;5085327;28;20492;-75
2023/02/09 06:02:53;;;;;;;29.20;20.97;;;-1.20;99.90;;;;;;5078535;28;20488;-74
2023/02/09 06:05:23;;;;;;;30.70;21.83;;;-1.20;99.90;;;;;;5080549;28;20480;-74
2023/02/09 06:07:51;;;;;;;30.83;20.10;;;-1.20;99.90;;;;;;5073836;28;20485;-74
2023/02/09 06:10:21;;;;;;;28.70;22.13;;;-1.20;99.90;;;;;;5072060;28;21625;-73
2023/02/09 06:13:00;;;;;;;31.43;21.03;;;-1.30;99.90;;;;;;5076573;28;20492;-73
2023/02/09 06:15:29;;;;;;;32.03;20.10;;;-1.30;99.90;;;;;;5082262;28;20899;-74
2023/02/09 06:18:03;;;;;;;35.00;21.83;;;-1.30;99.90;;;;;;5084959;28;20484;-74
2023/02/09 06:20:40;;;;;;;31.33;21.07;;;-1.30;99.90;;;;;;5077577;28;21142;-74
2023/02/09 06:23:15;;;;;;;31.07;20.63;;;-1.30;99.90;;;;;;5082586;28;20475;-74
2023/02/09 06:25:58;;;;;;;31.30;20.97;;;-1.30;99.90;;;;;;5082513;28;20467;-73
2023/02/09 06:28:31;;;;;;;32.70;20.73;;;-1.40;99.90;;;;;;5078702;28;20507;-74
2023/02/09 06:31:02;;;;;;;32.50;20.80;;;-1.30;99.90;;;;;;5073821;28;20522;-73
2023/02/09 06:33:31;;;;;;;30.07;19.90;;;-1.30;99.90;;;;;;5074685;28;20456;-74
2023/02/09 06:36:15;;;;;;;28.90;19.37;;;-1.30;99.90;;;;;;5074002;28;21196;-74
2023/02/09 06:38:48;;;;;;;31.40;19.43;;;-1.30;99.90;;;;;;5069970;28;21178;-74
2023/02/09 06:41:29;;;;;;;27.10;18.80;;;-1.30;99.90;;;;;;5069049;28;20492;-73
2023/02/09 06:44:00;;;;;;;25.00;18.33;;;-1.20;99.90;;;;;;5074538;28;20464;-73
2023/02/09 06:46:38;;;;;;;27.53;18.50;;;-1.20;99.90;;;;;;5075629;28;20529;-74
2023/02/09 06:49:07;;;;;;;28.00;18.80;;;-1.20;99.90;;;;;;5078775;28;21436;-74
2023/02/09 06:51:47;;;;;;;19.80;15.33;;;-1.10;99.90;;;;;;5072113;28;20499;-74
2023/02/09 06:54:30;;;;;;;21.87;15.43;;;-1.10;99.90;;;;;;5079954;28;20565;-74
2023/02/09 06:57:06;;;;;;;26.23;16.50;;;-1.10;99.90;;;;;;5084643;28;20461;-74
2023/02/09 06:59:40;;;;;;;19.30;13.50;;;-1.00;99.90;;;;;;5078012;28;20488;-73
2023/02/09 07:02:16;;;;;;;21.00;12.33;;;-0.90;99.90;;;;;;5079371;28;20508;-74
2023/02/09 07:05:01;;;;;;;;;;;;;;;;;;;;;
2023/02/09 07:07:31;;;;;;;17.60;12.93;;;-0.60;99.90;;;;;;5074755;28;20460;-73
2023/02/09 07:10:02;;;;;;;15.20;11.83;;;-0.50;99.90;;;;;;5096016;28;20563;-74
2023/02/09 07:12:30;;;;;;;15.70;12.00;;;-0.40;99.90;;;;;;5094770;28;20503;-74
2023/02/09 07:15:00;;;;;;;15.07;10.90;;;-0.40;99.90;;;;;;5079132;28;20488;-74
2023/02/09 07:17:33;;;;;;;15.33;10.53;;;-0.30;99.90;;;;;;5084222;28;21062;-74
2023/02/09 07:20:02;;;;;;;17.10;12.00;;;-0.30;99.90;;;;;;5086985;28;20472;-74
2023/02/09 07:22:42;;;;;;;17.43;11.87;;;-0.20;99.90;;;;;;5088916;28;20504;-74
2023/02/09 07:25:19;;;;;;;17.27;11.83;;;-0.20;99.90;;;;;;5085421;28;20971;-74
2023/02/09 07:27:52;;;;;;;17.57;12.70;;;-0.10;99.90;;;;;;5078023;28;20549;-74
2023/02/09 07:30:20;;;;;;;14.60;10.97;;;0.00;99.90;;;;;;5088756;28;20557;-74
2023/02/09 07:33:11;;;;;;;15.60;11.53;;;0.00;99.90;;;;;;5089601;28;21032;-75
2023/02/09 07:35:44;;;;;;;14.50;11.47;;;0.10;99.90;;;;;;5090655;28;20971;-74
2023/02/09 07:38:25;;;;;;;18.60;10.90;;;0.20;99.90;;;;;;5084512;28;20519;-74
2023/02/09 07:41:03;;;;;;;15.13;11.47;;;0.20;99.90;;;;;;5090159;28;20487;-75
2023/02/09 07:43:31;;;;;;;17.60;10.87;;;0.20;99.90;;;;;;5083977;28;20464;-75
2023/02/09 07:46:11;;;;;;;17.93;11.27;;;0.30;99.90;;;;;;5079689;28;20547;-75
2023/02/09 07:48:45;;;;;;;15.17;12.20;;;0.30;99.90;;;;;;5086293;28;20986;-74
2023/02/09 07:51:18;;;;;;;14.80;11.53;;;0.30;99.90;;;;;;5085904;28;20515;-74
2023/02/09 07:53:58;;;;;;;18.77;13.13;;;0.40;99.90;;;;;;5085177;28;20477;-75
2023/02/09 07:56:36;;;;;;;14.47;10.67;;;0.40;99.90;;;;;;5073912;28;20464;-74
2023/02/09 07:59:06;;;;;;;16.20;11.23;;;0.40;99.90;;;;;;5081671;28;20575;-75
2023/02/09 08:01:38;;;;;;;15.13;11.23;;;0.40;99.90;;;;;;5082866;28;20519;-73
2023/02/09 08:04:18;;;;;;;16.43;11.63;;;0.40;99.90;;;;;;5073844;28;20468;-74
2023/02/09 08:06:55;;;;;;;19.27;11.33;;;0.50;99.90;;;;;;5070736;28;20480;-73
2023/02/09 08:09:29;;;;;;;16.13;11.20;;;0.50;99.90;;;;;;5081145;28;20612;-73
2023/02/09 08:12:05;;;;;;;14.17;10.97;;;0.50;99.90;;;;;;5077865;28;20588;-73
2023/02/09 08:14:47;;;;;;;16.23;11.80;;;0.60;99.90;;;;;;5084884;28;20473;-73
2023/02/09 08:17:19;;;;;;;16.53;11.70;;;0.60;99.90;;;;;;5077292;28;20464;-73
2023/02/09 08:19:57;;;;;;;15.83;11.00;;;0.60;99.90;;;;;;5085508;28;20593;-73
2023/02/09 08:22:37;;;;;;;18.80;11.77;;;0.60;99.90;;;;;;5083124;28;20488;-74
2023/02/09 08:25:21;;;;;;;17.23;11.87;;;0.70;99.90;;;;;;5082004;28;20468;-73
2023/02/09 08:27:51;;;;;;;15.70;11.47;;;0.70;99.90;;;;;;5085805;28;20468;-73
2023/02/09 08:30:22;;;;;;;16.40;12.30;;;0.80;99.90;;;;;;5086562;28;20469;-73
2023/02/09 08:32:55;;;;;;;16.20;11.07;;;0.80;99.90;;;;;;5085814;28;20489;-73
2023/02/09 08:35:37;;;;;;;14.30;11.13;;;0.70;99.90;;;;;;5089661;28;21051;-73
2023/02/09 08:38:10;;;;;;;15.30;11.47;;;0.80;99.90;;;;;;5083849;28;20484;-74
2023/02/09 08:40:42;;;;;;;16.40;11.80;;;0.80;99.90;;;;;;5086662;28;20471;-74
2023/02/09 08:43:15;;;;;;;14.50;11.60;;;0.80;99.90;;;;;;5080240;28;20492;-73
2023/02/09 08:45:51;;;;;;;14.97;11.43;;;0.90;99.90;;;;;;5080965;28;20472;-73
2023/02/09 08:48:21;;;;;;;15.37;11.83;;;0.90;99.90;;;;;;5082380;28;20511;-73
2023/02/09 08:50:58;;;;;;;13.60;10.87;;;1.00;99.90;;;;;;5077010;28;20495;-73
2023/02/09 08:53:35;;;;;;;13.97;11.03;;;1.00;99.90;;;;;;5081010;28;20469;-73
2023/02/09 08:56:07;;;;;;;16.33;10.60;;;1.00;99.90;;;;;;5088176;28;20495;-72
2023/02/09 08:58:38;;;;;;;15.03;11.70;;;1.10;99.90;;;;;;5085021;28;20485;-74
2023/02/09 09:01:13;;;;;;;14.93;12.07;;;1.10;99.90;;;;;;5082557;28;20485;-74
2023/02/09 09:03:47;;;;;;;16.13;11.60;;;1.10;99.90;;;;;;5082359;28;20488;-73
2023/02/09 09:06:16;;;;;;;19.87;11.47;;;1.20;99.90;;;;;;5080261;28;20830;-72
2023/02/09 09:08:50;;;;;;;16.53;11.57;;;1.20;99.90;;;;;;5086250;28;20485;-73
2023/02/09 09:11:28;;;;;;;15.00;10.83;;;1.20;99.90;;;;;;5090569;28;20995;-73
2023/02/09 09:14:01;;;;;;;14.57;10.50;;;1.20;99.90;;;;;;5083611;28;20529;-72
2023/02/09 09:16:36;;;;;;;15.13;12.73;;;1.20;99.90;;;;;;5078973;28;20472;-74
2023/02/09 09:19:11;;;;;;;16.40;11.67;;;1.20;99.90;;;;;;5081353;28;20484;-74
2023/02/09 09:21:47;;;;;;;15.30;12.13;;;1.30;99.90;;;;;;5090904;28;20551;-73
2023/02/09 09:24:18;;;;;;;17.47;11.70;;;1.30;99.90;;;;;;5077481;28;20567;-74
2023/02/09 09:26:50;;;;;;;15.60;10.70;;;1.40;99.90;;;;;;5088216;28;20468;-73
2023/02/09 09:29:22;;;;;;;13.87;10.93;;;1.40;99.90;;;;;;5086086;28;21068;-73
2023/02/09 09:31:54;;;;;;;15.30;10.83;;;1.50;99.90;;;;;;5078290;28;20507;-74
2023/02/09 09:34:28;;;;;;;13.43;10.77;;;1.50;99.90;;;;;;5073927;28;20522;-72
2023/02/09 09:36:57;;;;;;;17.00;11.10;;;1.60;99.90;;;;;;5073440;28;20503;-72
2023/02/09 09:39:29;;;;;;;14.60;11.83;;;1.70;99.90;;;;;;5077365;28;21282;-72
2023/02/09 09:42:06;;;;;;;15.17;11.00;;;1.70;99.90;;;;;;5071079;28;20502;-72
2023/02/09 09:44:45;;;;;;;15.10;11.20;;;1.70;99.90;;;;;;5080063;28;20469;-72
2023/02/09 09:47:19;;;;;;;15.03;11.60;;;1.80;99.90;;;;;;5078778;28;20471;-73
2023/02/09 09:50:04;;;;;;;14.67;10.20;;;1.80;99.90;;;;;;5083833;28;20563;-74
2023/02/09 09:52:39;;;;;;;15.50;11.40;;;1.80;99.90;;;;;;5077176;28;20508;-72
2023/02/09 09:55:21;;;;;;;17.40;12.53;;;1.80;99.90;;;;;;5087658;28;20890;-72
2023/02/09 09:57:59;;;;;;;14.50;11.07;;;1.90;99.90;;;;;;5076710;28;20479;-72
2023/02/09 10:00:36;;;;;;;14.10;11.57;;;2.00;99.90;;;;;;5082464;28;20468;-74
2023/02/09 10:03:12;;;;;;;17.13;11.10;;;2.10;99.90;;;;;;5074740;28;20493;-72
2023/02/09 10:05:44;;;;;;;19.17;11.50;;;2.20;99.90;;;;;;5080292;28;20987;-71
2023/02/09 10:08:33;;;;;;;15.93;11.07;;;2.20;99.90;;;;;;5074635;28;20516;-73
2023/02/09 10:11:17;;;;;;;15.10;10.80;;;2.30;99.90;;;;;;5084386;28;20484;-72
2023/02/09 10:13:58;;;;;;;17.53;11.07;;;2.40;99.90;;;;;;5081374;28;21021;-72
2023/02/09 10:16:33;;;;;;;16.10;11.40;;;2.40;99.90;;;;;;5077948;28;20865;-72
2023/02/09 10:19:24;;;;;;;13.27;10.50;;;2.50;99.90;;;;;;5075917;28;20490;-74
2023/02/09 10:21:56;;;;;;;14.30;10.93;;;2.50;99.90;;;;;;5075129;28;20570;-73
2023/02/09 10:24:26;;;;;;;14.20;11.90;;;2.60;99.90;;;;;;5084242;28;20851;-71
2023/02/09 10:27:20;;;;;;;16.63;10.90;;;2.60;99.90;;;;;;5082395;28;20840;-72
2023/02/09 10:30:01;;;;;;;12.63;10.10;;;2.70;99.90;;;;;;5084042;28;22249;-73
2023/02/09 10:32:39;;;;;;;15.07;10.33;;;2.80;99.90;;;;;;5088438;28;21084;-72
2023/02/09 10:35:26;;;;;;;13.33;11.43;;;2.90;99.90;;;;;;5079068;28;20463;-73
2023/02/09 10:38:13;;;;;;;16.33;11.50;;;2.90;99.90;;;;;;5085910;28;20542;-73
2023/02/09 10:40:41;;;;;;;14.97;11.30;;;3.00;99.90;;;;;;5084505;28;20480;-73
2023/02/09 10:43:23;;;;;;;17.47;11.90;;;3.00;99.90;;;;;;5085638;28;20508;-73
2023/02/09 10:46:05;;;;;;;14.40;11.27;;;3.10;99.90;;;;;;5077798;28;20464;-74
2023/02/09 10:48:42;;;;;;;13.70;11.60;;;3.10;99.90;;;;;;5083304;28;20500;-73
2023/02/09 10:51:27;;;;;;;16.10;11.90;;;3.20;99.90;;;;;;5088100;28;20488;-74
2023/02/09 10:54:06;;;;;;;14.03;10.50;;;3.20;99.90;;;;;;5080857;28;20526;-73
2023/02/09 10:56:44;;;;;;;13.67;10.77;;;3.30;99.90;;;;;;5085814;28;20476;-72
2023/02/09 10:59:19;;;;;;;13.73;10.67;;;3.40;99.90;;;;;;5093023;28;20472;-72
2023/02/09 11:01:58;;;;;;;14.80;11.30;;;3.40;99.90;;;;;;5086234;28;20488;-72
2023/02/09 11:04:43;;;;;;;16.07;11.67;;;3.50;99.90;;;;;;5079378;28;20503;-73
2023/02/09 11:07:21;;;;;;;13.73;10.70;;;3.60;99.90;;;;;;5084268;28;20476;-72
2023/02/09 11:09:58;;;;;;;14.77;11.00;;;3.70;99.90;;;;;;5082390;28;20489;-73
2023/02/09 11:12:27;;;;;;;13.43;10.90;;;3.80;99.90;;;;;;5087898;28;20491;-73
2023/02/09 11:15:05;;;;;;;13.70;11.67;;;3.80;99.90;;;;;;5086280;28;20469;-75
2023/02/09 11:17:44;;;;;;;13.77;10.60;;;4.00;99.90;;;;;;5082594;28;20988;-75
2023/02/09 11:20:34;;;;;;;13.27;10.93;;;4.00;99.90;;;;;;5085773;28;20964;-73
2023/02/09 11:23:30;;;;;;;15.50;11.67;;;4.10;99.90;;;;;;5083773;28;20493;-74
2023/02/09 11:26:04;;;;;;;13.27;10.47;;;4.30;99.90;;;;;;5087107;28;20542;-75
2023/02/09 11:28:59;;;;;;;13.83;10.60;;;4.30;99.90;;;;;;5084136;28;20483;-74
2023/02/09 11:31:54;;;;;;;12.13;10.53;;;4.40;99.90;;;;;;5081864;28;21000;-73
2023/02/09 11:34:59;;;;;;;14.53;11.77;;;4.50;99.90;;;;;;5068138;28;20458;-75
2023/02/09 11:37:47;;;;;;;14.20;11.17;;;4.50;99.90;;;;;;5065128;28;20469;-74
2023/02/09 11:40:42;;;;;;;13.70;10.90;;;4.60;99.90;;;;;;5068693;28;20462;-74
2023/02/09 11:43:23;;;;;;;14.40;10.97;;;4.60;99.90;;;;;;5063611;28;20929;-74
2023/02/09 11:45:56;;;;;;;12.57;10.47;;;4.70;99.90;;;;;;5064668;28;20560;-74
2023/02/09 11:48:41;;;;;;;13.73;11.80;;;4.80;99.90;;;;;;5061484;28;20568;-75
2023/02/09 11:51:16;;;;;;;13.60;11.20;;;4.90;99.90;;;;;;5066410;28;20516;-74
2023/02/09 11:53:54;;;;;;;13.30;11.20;;;5.00;99.90;;;;;;5061052;28;21063;-74
2023/02/09 12:43:28;;;;;;;13.90;11.23;;;6.50;99.90;;;;;;5025867;28;20539;-74
2023/02/09 12:46:22;;;;;;;14.40;12.03;;;6.40;99.90;;;;;;5050219;28;20482;-74
2023/02/09 12:49:20;;;;;;;12.93;10.47;;;6.10;99.90;;;;;;5056710;28;20539;-75
2023/02/09 12:52:13;;;;;;;14.00;11.77;;;5.80;99.90;;;;;;5060092;28;20492;-74
2023/02/09 12:54:55;;;;;;;15.13;11.80;;;5.40;99.90;;;;;;5062428;28;20469;-75
2023/02/09 12:57:49;;;;;;;14.37;11.60;;;5.10;99.90;;;;;;5060063;28;20469;-75
2023/02/09 13:00:56;;;;;;;14.70;13.10;;;4.90;99.90;;;;;;5011198;28;20482;-74
2023/02/09 13:03:29;;;;;;;16.00;12.20;;;4.80;99.90;;;;;;5053406;28;20572;-74
2023/02/09 13:06:13;;;;;;;13.50;10.83;;;4.70;99.90;;;;;;5055785;28;20469;-74
2023/02/09 14:02:24;;;;;;;13.70;11.07;;;4.60;99.90;;;;;;5063976;28;20814;-74
2023/02/09 14:05:12;;;;;;;15.63;11.87;;;4.60;99.90;;;;;;5078207;28;21105;-74
2023/02/09 14:07:48;;;;;;;19.13;12.60;;;4.60;99.90;;;;;;5086331;28;20464;-73
2023/02/09 14:10:20;;;;;;;16.87;12.40;;;4.60;99.90;;;;;;5075583;28;20481;-75
2023/02/09 14:13:01;;;;;;;18.07;13.00;;;4.60;99.90;;;;;;5077399;28;20492;-73
2023/02/09 14:18:33;;;;;;;18.07;13.57;;;4.80;99.90;;;;;;5065236;28;20480;-74
2023/02/09 14:21:36;;;;;;;13.20;11.80;;;4.80;99.90;;;;;;5071011;28;21664;-74
2023/02/09 14:24:30;;;;;;;14.53;12.03;;;4.90;99.90;;;;;;5070409;28;20496;-75
2023/02/09 14:27:18;;;;;;;14.60;11.70;;;4.90;99.90;;;;;;5058652;28;20476;-74
2023/02/09 14:29:50;;;;;;;15.23;13.10;;;4.90;99.90;;;;;;5061708;28;20488;-75
2023/02/09 14:32:34;;;;;;;14.27;11.83;;;4.80;99.90;;;;;;5090395;28;20496;-74
2023/02/09 14:35:22;;;;;;;15.53;12.57;;;4.80;99.90;;;;;;5063453;28;21242;-74
2023/02/09 14:38:02;;;;;;;17.60;13.03;;;4.70;99.90;;;;;;5067041;28;20480;-74
2023/02/09 14:40:37;;;;;;;15.20;12.47;;;4.60;99.90;;;;;;5059854;28;20475;-74
2023/02/09 14:43:27;;;;;;;15.10;13.50;;;4.50;99.90;;;;;;5074767;28;20501;-74
2023/02/09 14:45:59;;;;;;;14.87;13.37;;;4.40;99.90;;;;;;5062271;28;20467;-74
2023/02/09 14:48:32;;;;;;;16.73;13.27;;;4.30;99.90;;;;;;5061667;28;20499;-75
2023/02/09 14:51:14;;;;;;;15.70;12.77;;;4.30;99.90;;;;;;5060212;28;20492;-74
2023/02/09 14:53:54;;;;;;;14.70;13.03;;;4.20;99.90;;;;;;5084355;28;20483;-74
2023/02/09 14:56:32;;;;;;;14.40;12.90;;;4.20;99.90;;;;;;5089366;28;20460;-74
2023/02/09 14:59:21;;;;;;;14.63;11.90;;;4.20;99.90;;;;;;5068167;28;20500;-73
2023/02/09 15:02:01;;;;;;;16.57;12.50;;;4.20;99.90;;;;;;5063268;28;21023;-74
2023/02/09 15:04:36;;;;;;;16.47;12.97;;;4.20;99.90;;;;;;5059927;28;20570;-75
2023/02/09 15:07:18;;;;;;;16.53;12.40;;;4.20;99.90;;;;;;5069018;28;20473;-74
2023/02/09 15:09:47;;;;;;;15.83;12.10;;;4.20;99.90;;;;;;5067079;28;20485;-75
2023/02/09 15:12:22;;;;;;;14.80;12.30;;;4.10;99.90;;;;;;5085016;28;20488;-74
2023/02/09 15:14:54;;;;;;;15.00;12.43;;;4.10;99.90;;;;;;5080326;28;20468;-74
2023/02/09 15:17:26;;;;;;;15.60;12.23;;;4.10;99.90;;;;;;5067232;28;20923;-74
2023/02/09 15:20:04;;;;;;;15.53;12.70;;;4.10;99.90;;;;;;5077156;28;20477;-74
2023/02/09 15:22:37;;;;;;;15.50;11.90;;;4.10;99.90;;;;;;5080066;28;20614;-74
2023/02/09 15:25:12;;;;;;;15.43;11.93;;;4.00;99.90;;;;;;5082411;28;20481;-73
2023/02/09 15:27:47;;;;;;;17.67;13.00;;;4.00;99.90;;;;;;5087052;28;20463;-73
2023/02/09 15:30:21;;;;;;;17.50;12.73;;;4.00;99.90;;;;;;5076334;28;20469;-73
2023/02/09 15:32:55;;;;;;;17.57;12.43;;;3.90;99.90;;;;;;5068509;28;20518;-74
2023/02/09 15:35:28;;;;;;;15.10;11.87;;;3.90;99.90;;;;;;5080226;28;20468;-74
2023/02/09 15:38:03;;;;;;;19.10;13.77;;;3.90;99.90;;;;;;5069242;28;20473;-74
2023/02/09 15:49:18;;;;;;;18.10;13.30;;;3.90;99.90;;;;;;5078488;28;20492;-74
2023/02/09 15:51:51;;;;;;;16.20;12.57;;;3.90;99.90;;;;;;5069121;28;20817;-73
2023/02/09 15:54:25;;;;;;;17.53;13.80;;;3.90;99.90;;;;;;5069769;28;20472;-73
2023/02/09 15:56:59;;;;;;;17.90;13.03;;;3.90;99.90;;;;;;5078418;28;20545;-73
2023/02/09 15:59:34;;;;;;;16.53;13.63;;;3.90;99.90;;;;;;5075505;28;20858;-74
2023/02/09 16:02:11;;;;;;;13.90;12.40;;;3.90;99.90;;;;;;5079627;28;20601;-74
2023/02/09 16:04:47;;;;;;;15.13;12.60;;;3.90;99.90;;;;;;5078046;28;20502;-74
2023/02/09 16:07:22;;;;;;;16.07;12.87;;;3.90;99.90;;;;;;5075134;28;20845;-76